sensor_id;sensor_type;location;lat;lon;timestamp;temperature;humidity
41168;DHT22;26906;45.658;9.272;2023-02-10T06:47:02;-0.90;99.90
41168;DHT22;26906;45.658;9.272;2023-02-10T06:49:31;-0.80;99.90
41168;DHT22;26906;45.658;9.272;2023-02-10T06:51:57;-0.70;99.90
41168;DHT22;26906;45.658;9.272;2023-02-10T06:54:23;-0.60;99.90
41168;DHT22;26906;45.658;9.272;2023-02-10T06:56:49;-0.60;99.90
41168;DHT22;26906;45.658;9.272;2023-02-10T06:59:15;-0.60;99.90
41168;DHT22;26906;45.658;9.272;2023-02-10T07:01:40;-0.40;99.90
41168;DHT22;26906;45.658;9.272;2023-02-10T07:04:06;-0.40;99.90
41168;DHT22;26906;45.658;9.272;2023-02-10T07:06:32;-0.40;99.90
41168;DHT22;26906;45.658;9.272;2023-02-10T07:08:58;-0.40;99.90
41168;DHT22;26906;45.658;9.272;2023-02-10T07:11:23;-0.30;99.90
41168;DHT22;26906;45.658;9.272;2023-02-10T07:13:49;-0.30;99.90
41168;DHT22;26906;45.658;9.272;2023-02-10T07:16:15;-0.30;99.90
41168;DHT22;26906;45.658;9.272;2023-02-10T07:18:42;-0.20;99.90
41168;DHT22;26906;45.658;9.272;2023-02-10T07:21:08;-0.10;99.90
41168;DHT22;26906;45.658;9.272;2023-02-10T07:23:34;-0.20;99.90
41168;DHT22;26906;45.658;9.272;2023-02-10T07:26:00;-0.20;99.90
41168;DHT22;26906;45.658;9.272;2023-02-10T07:28:25;-0.10;99.90
41168;DHT22;26906;45.658;9.272;2023-02-10T07:30:52;0.00;99.90
41168;DHT22;26906;45.658;9.272;2023-02-10T07:33:19;0.10;99.90
41168;DHT22;26906;45.658;9.272;2023-02-10T07:35:45;0.20;99.90
41168;DHT22;26906;45.658;9.272;2023-02-10T07:38:10;0.40;99.90
41168;DHT22;26906;45.658;9.272;2023-02-10T07:40:36;0.40;99.90
41168;DHT22;26906;45.658;9.272;2023-02-10T07:43:02;0.60;99.90
41168;DHT22;26906;45.658;9.272;2023-02-10T07:45:43;0.70;99.90
41168;DHT22;26906;45.658;9.272;2023-02-10T07:48:09;0.90;99.90
41168;DHT22;26906;45.658;9.272;2023-02-10T07:50:38;1.00;99.90
41168;DHT22;26906;45.658;9.272;2023-02-10T07:53:04;1.40;99.90
41168;DHT22;26906;45.658;9.272;2023-02-10T07:55:30;1.40;99.90
41168;DHT22;26906;45.658;9.272;2023-02-10T07:58:03;1.40;99.90
41168;DHT22;26906;45.658;9.272;2023-02-10T08:00:29;1.50;99.90
41168;DHT22;26906;45.658;9.272;2023-02-10T08:02:55;1.60;99.90
41168;DHT22;26906;45.658;9.272;2023-02-10T08:05:21;1.70;99.90
41168;DHT22;26906;45.658;9.272;2023-02-10T08:07:49;1.90;99.90
41168;DHT22;26906;45.658;9.272;2023-02-10T08:10:18;2.10;99.90
41168;DHT22;26906;45.658;9.272;2023-02-10T08:12:43;2.30;99.90
41168;DHT22;26906;45.658;9.272;2023-02-10T08:15:12;2.70;99.90
41168;DHT22;26906;45.658;9.272;2023-02-10T08:17:43;3.00;99.90
41168;DHT22;26906;45.658;9.272;2023-02-10T08:20:13;3.10;99.90
41168;DHT22;26906;45.658;9.272;2023-02-10T08:22:40;3.40;99.90
41168;DHT22;26906;45.658;9.272;2023-02-10T08:25:07;3.40;99.90
41168;DHT22;26906;45.658;9.272;2023-02-10T08:27:33;3.80;99.90
41168;DHT22;26906;45.658;9.272;2023-02-10T08:29:59;3.80;99.90
41168;DHT22;26906;45.658;9.272;2023-02-10T08:32:26;3.80;99.90
41168;DHT22;26906;45.658;9.272;2023-02-10T08:34:52;3.90;99.90
41168;DHT22;26906;45.658;9.272;2023-02-10T08:37:19;3.90;99.90
41168;DHT22;26906;45.658;9.272;2023-02-10T08:39:48;4.10;99.90
41168;DHT22;26906;45.658;9.272;2023-02-10T08:42:14;4.20;99.90
41168;DHT22;26906;45.658;9.272;2023-02-10T08:44:40;4.30;99.90
41168;DHT22;26906;45.658;9.272;2023-02-10T08:47:07;4.20;99.90
41168;DHT22;26906;45.658;9.272;2023-02-10T08:49:37;4.40;99.90
41168;DHT22;26906;45.658;9.272;2023-02-10T08:52:04;4.60;99.90
41168;DHT22;26906;45.658;9.272;2023-02-10T08:54:29;4.60;99.90
41168;DHT22;26906;45.658;9.272;2023-02-10T08:56:56;4.70;99.90
41168;DHT22;26906;45.658;9.272;2023-02-10T08:59:21;4.80;99.90
41168;DHT22;26906;45.658;9.272;2023-02-10T09:01:47;4.70;99.90
41168;DHT22;26906;45.658;9.272;2023-02-10T09:04:13;4.80;99.90
41168;DHT22;26906;45.658;9.272;2023-02-10T09:06:41;5.00;99.90
41168;DHT22;26906;45.658;9.272;2023-02-10T09:09:13;5.00;99.90
41168;DHT22;26906;45.658;9.272;2023-02-10T09:11:40;5.20;99.90
41168;DHT22;26906;45.658;9.272;2023-02-10T09:14:07;5.20;99.90
41168;DHT22;26906;45.658;9.272;2023-02-10T09:16:34;5.30;99.90
41168;DHT22;26906;45.658;9.272;2023-02-10T09:19:00;5.50;99.90
41168;DHT22;26906;45.658;9.272;2023-02-10T09:21:26;5.70;99.90
41168;DHT22;26906;45.658;9.272;2023-02-10T09:23:52;5.90;99.90
41168;DHT22;26906;45.658;9.272;2023-02-10T09:26:19;5.80;99.90
41168;DHT22;26906;45.658;9.272;2023-02-10T09:28:45;5.90;99.90
41168;DHT22;26906;45.658;9.272;2023-02-10T09:31:12;5.90;99.90
41168;DHT22;26906;45.658;9.272;2023-02-10T09:33:38;5.90;99.90
41168;DHT22;26906;45.658;9.272;2023-02-10T09:36:06;6.10;99.90
41168;DHT22;26906;45.658;9.272;2023-02-10T09:38:34;6.20;99.90
41168;DHT22;26906;45.658;9.272;2023-02-10T09:44:05;6.30;99.90
41168;DHT22;26906;45.658;9.272;2023-02-10T09:54:56;6.80;99.90
41168;DHT22;26906;45.658;9.272;2023-02-10T09:57:43;6.80;99.90
41168;DHT22;26906;45.658;9.272;2023-02-10T10:00:29;6.80;99.90
41168;DHT22;26906;45.658;9.272;2023-02-10T10:02:57;7.00;99.90
41168;DHT22;26906;45.658;9.272;2023-02-10T10:07:57;7.30;99.90
41168;DHT22;26906;45.658;9.272;2023-02-10T10:10:32;7.30;99.90
41168;DHT22;26906;45.658;9.272;2023-02-10T10:13:02;7.40;99.90
41168;DHT22;26906;45.658;9.272;2023-02-10T10:15:37;7.70;99.90
41168;DHT22;26906;45.658;9.272;2023-02-10T10:18:27;8.00;99.90
41168;DHT22;26906;45.658;9.272;2023-02-10T10:21:05;7.80;99.90
41168;DHT22;26906;45.658;9.272;2023-02-10T10:23:41;8.00;99.90
41168;DHT22;26906;45.658;9.272;2023-02-10T10:26:38;8.10;99.90
41168;DHT22;26906;45.658;9.272;2023-02-10T10:29:27;8.10;99.90
41168;DHT22;26906;45.658;9.272;2023-02-10T10:32:18;8.30;99.90
41168;DHT22;26906;45.658;9.272;2023-02-10T10:34:51;8.50;99.90
41168;DHT22;26906;45.658;9.272;2023-02-10T10:37:21;8.10;99.90
41168;DHT22;26906;45.658;9.272;2023-02-10T10:39:54;8.20;99.90
41168;DHT22;26906;45.658;9.272;2023-02-10T10:42:26;8.30;99.90
41168;DHT22;26906;45.658;9.272;2023-02-10T10:47:50;8.40;99.90
41168;DHT22;26906;45.658;9.272;2023-02-10T10:50:20;8.50;99.90
41168;DHT22;26906;45.658;9.272;2023-02-10T10:53:05;8.50;99.90
41168;DHT22;26906;45.658;9.272;2023-02-10T10:55:46;8.70;99.90
41168;DHT22;26906;45.658;9.272;2023-02-10T10:58:27;9.00;99.90
41168;DHT22;26906;45.658;9.272;2023-02-10T11:00:58;9.00;99.30
41168;DHT22;26906;45.658;9.272;2023-02-10T11:03:24;9.00;99.50
41168;DHT22;26906;45.658;9.272;2023-02-10T11:06:08;9.00;98.60
41168;DHT22;26906;45.658;9.272;2023-02-10T11:08:38;9.10;98.50
41168;DHT22;26906;45.658;9.272;2023-02-10T11:11:10;9.20;98.70
41168;DHT22;26906;45.658;9.272;2023-02-10T11:13:40;9.40;98.90
41168;DHT22;26906;45.658;9.272;2023-02-10T11:16:16;9.50;98.20
41168;DHT22;26906;45.658;9.272;2023-02-10T11:18:56;9.60;98.00
41168;DHT22;26906;45.658;9.272;2023-02-10T11:21:38;9.60;98.30
41168;DHT22;26906;45.658;9.272;2023-02-10T11:24:28;9.60;97.60
41168;DHT22;26906;45.658;9.272;2023-02-10T11:27:06;9.60;97.70
41168;DHT22;26906;45.658;9.272;2023-02-10T11:29:48;9.60;97.40
41168;DHT22;26906;45.658;9.272;2023-02-10T11:32:26;9.70;97.70
41168;DHT22;26906;45.658;9.272;2023-02-10T11:34:57;9.80;97.80
41168;DHT22;26906;45.658;9.272;2023-02-10T11:39:56;9.70;96.80
41168;DHT22;26906;45.658;9.272;2023-02-10T11:42:32;9.70;96.80
41168;DHT22;26906;45.658;9.272;2023-02-10T11:45:15;10.10;96.80
41168;DHT22;26906;45.658;9.272;2023-02-10T11:47:42;10.00;95.80
41168;DHT22;26906;45.658;9.272;2023-02-10T11:50:26;10.10;95.90
41168;DHT22;26906;45.658;9.272;2023-02-10T11:52:52;10.30;96.40
41168;DHT22;26906;45.658;9.272;2023-02-10T11:55:21;10.50;95.50
41168;DHT22;26906;45.658;9.272;2023-02-10T12:01:08;10.50;98.30
41168;DHT22;26906;45.658;9.272;2023-02-10T12:06:33;10.60;94.80
41168;DHT22;26906;45.658;9.272;2023-02-10T12:12:02;10.50;94.60
41168;DHT22;26906;45.658;9.272;2023-02-10T12:14:55;10.50;94.00
41168;DHT22;26906;45.658;9.272;2023-02-10T12:26:18;10.60;93.80
41168;DHT22;26906;45.658;9.272;2023-02-10T12:29:12;10.60;93.10
41168;DHT22;26906;45.658;9.272;2023-02-10T12:32:19;10.60;92.70
41168;DHT22;26906;45.658;9.272;2023-02-10T12:34:45;10.80;93.60
41168;DHT22;26906;45.658;9.272;2023-02-10T12:38:25;10.90;93.40
41168;DHT22;26906;45.658;9.272;2023-02-10T12:43:35;11.00;91.80
41168;DHT22;26906;45.658;9.272;2023-02-10T12:46:19;10.90;91.40
41168;DHT22;26906;45.658;9.272;2023-02-10T12:54:26;11.10;91.70
41168;DHT22;26906;45.658;9.272;2023-02-10T12:57:00;11.20;91.50
41168;DHT22;26906;45.658;9.272;2023-02-10T13:02:23;11.10;90.40
41168;DHT22;26906;45.658;9.272;2023-02-10T13:04:58;11.10;90.90
41168;DHT22;26906;45.658;9.272;2023-02-10T13:07:49;11.10;90.90
41168;DHT22;26906;45.658;9.272;2023-02-10T13:10:48;10.90;90.70
41168;DHT22;26906;45.658;9.272;2023-02-10T13:13:34;10.80;91.50
41168;DHT22;26906;45.658;9.272;2023-02-10T13:16:06;11.00;91.40
41168;DHT22;26906;45.658;9.272;2023-02-10T13:18:40;11.00;90.70
41168;DHT22;26906;45.658;9.272;2023-02-10T13:21:19;10.80;90.70
41168;DHT22;26906;45.658;9.272;2023-02-10T13:23:52;10.70;90.70
41168;DHT22;26906;45.658;9.272;2023-02-10T13:34:48;11.00;90.10
41168;DHT22;26906;45.658;9.272;2023-02-10T13:37:16;11.10;90.00
41168;DHT22;26906;45.658;9.272;2023-02-10T13:39:53;11.10;89.50
41168;DHT22;26906;45.658;9.272;2023-02-10T13:42:35;11.00;89.70
41168;DHT22;26906;45.658;9.272;2023-02-10T13:45:06;11.10;90.00
41168;DHT22;26906;45.658;9.272;2023-02-10T13:47:42;11.00;90.20
41168;DHT22;26906;45.658;9.272;2023-02-10T13:53:05;11.10;90.90
41168;DHT22;26906;45.658;9.272;2023-02-10T13:55:49;11.30;91.10
41168;DHT22;26906;45.658;9.272;2023-02-10T13:58:31;11.10;90.50
41168;DHT22;26906;45.658;9.272;2023-02-10T14:00:58;11.10;90.00
41168;DHT22;26906;45.658;9.272;2023-02-10T14:03:26;11.00;89.60
41168;DHT22;26906;45.658;9.272;2023-02-10T14:06:05;11.00;90.20
41168;DHT22;26906;45.658;9.272;2023-02-10T14:08:40;11.10;90.60
41168;DHT22;26906;45.658;9.272;2023-02-10T14:13:44;11.20;90.20
41168;DHT22;26906;45.658;9.272;2023-02-10T14:18:43;11.20;88.50
41168;DHT22;26906;45.658;9.272;2023-02-10T14:21:14;11.20;88.10
41168;DHT22;26906;45.658;9.272;2023-02-10T14:23:55;11.10;88.30
41168;DHT22;26906;45.658;9.272;2023-02-10T14:26:30;11.00;87.50
41168;DHT22;26906;45.658;9.272;2023-02-10T14:29:02;10.80;87.70
41168;DHT22;26906;45.658;9.272;2023-02-10T14:31:31;10.60;87.00
41168;DHT22;26906;45.658;9.272;2023-02-10T14:34:04;10.80;88.60
41168;DHT22;26906;45.658;9.272;2023-02-10T14:36:31;10.90;88.70
41168;DHT22;26906;45.658;9.272;2023-02-10T14:38:59;10.90;88.30
41168;DHT22;26906;45.658;9.272;2023-02-10T14:41:27;10.90;86.90
41168;DHT22;26906;45.658;9.272;2023-02-10T14:43:54;10.90;87.60
41168;DHT22;26906;45.658;9.272;2023-02-10T14:46:26;10.70;87.40
41168;DHT22;26906;45.658;9.272;2023-02-10T14:48:57;10.90;87.20
41168;DHT22;26906;45.658;9.272;2023-02-10T14:51:25;10.80;87.20
41168;DHT22;26906;45.658;9.272;2023-02-10T14:53:51;10.70;87.70
41168;DHT22;26906;45.658;9.272;2023-02-10T14:56:28;10.70;87.00
41168;DHT22;26906;45.658;9.272;2023-02-10T14:58:56;10.70;86.90
41168;DHT22;26906;45.658;9.272;2023-02-10T15:01:43;10.60;87.30
41168;DHT22;26906;45.658;9.272;2023-02-10T15:04:14;10.70;87.70
41168;DHT22;26906;45.658;9.272;2023-02-10T15:06:44;10.60;87.40
41168;DHT22;26906;45.658;9.272;2023-02-10T15:09:18;10.60;84.50
41168;DHT22;26906;45.658;9.272;2023-02-10T15:11:48;10.50;84.70
41168;DHT22;26906;45.658;9.272;2023-02-10T15:14:49;10.50;84.50
41168;DHT22;26906;45.658;9.272;2023-02-10T15:17:19;10.40;86.10
41168;DHT22;26906;45.658;9.272;2023-02-10T15:25:33;10.30;87.20
41168;DHT22;26906;45.658;9.272;2023-02-10T15:33:49;10.00;87.80
41168;DHT22;26906;45.658;9.272;2023-02-10T15:36:33;10.00;88.50
41168;DHT22;26906;45.658;9.272;2023-02-10T15:39:06;9.90;88.60
41168;DHT22;26906;45.658;9.272;2023-02-10T15:41:47;9.90;89.50
41168;DHT22;26906;45.658;9.272;2023-02-10T15:44:36;9.80;90.10
41168;DHT22;26906;45.658;9.272;2023-02-10T15:49:42;9.70;90.20
41168;DHT22;26906;45.658;9.272;2023-02-10T15:52:21;9.60;89.40
41168;DHT22;26906;45.658;9.272;2023-02-10T15:54:48;9.50;89.70
41168;DHT22;26906;45.658;9.272;2023-02-10T15:57:19;9.50;89.40
41168;DHT22;26906;45.658;9.272;2023-02-10T15:59:45;9.40;90.00
41168;DHT22;26906;45.658;9.272;2023-02-10T16:02:16;9.40;90.10
41168;DHT22;26906;45.658;9.272;2023-02-10T16:04:43;9.30;89.90
41168;DHT22;26906;45.658;9.272;2023-02-10T16:07:18;9.20;90.10
41168;DHT22;26906;45.658;9.272;2023-02-10T16:09:46;9.10;90.00
41168;DHT22;26906;45.658;9.272;2023-02-10T16:12:12;9.10;90.30
41168;DHT22;26906;45.658;9.272;2023-02-10T16:14:39;9.00;90.80
41168;DHT22;26906;45.658;9.272;2023-02-10T16:17:07;9.10;90.70
41168;DHT22;26906;45.658;9.272;2023-02-10T16:19:34;8.80;91.00
41168;DHT22;26906;45.658;9.272;2023-02-10T16:21:59;8.70;91.10
41168;DHT22;26906;45.658;9.272;2023-02-10T16:24:31;8.70;91.50
41168;DHT22;26906;45.658;9.272;2023-02-10T16:26:57;8.60;91.80
41168;DHT22;26906;45.658;9.272;2023-02-10T16:29:25;8.50;92.20
41168;DHT22;26906;45.658;9.272;2023-02-10T16:31:57;8.40;91.90
41168;DHT22;26906;45.658;9.272;2023-02-10T16:34:26;8.30;91.90
41168;DHT22;26906;45.658;9.272;2023-02-10T16:36:56;8.40;92.30
41168;DHT22;26906;45.658;9.272;2023-02-10T16:39:25;8.20;92.60
41168;DHT22;26906;45.658;9.272;2023-02-10T16:41:52;8.30;92.50
41168;DHT22;26906;45.658;9.272;2023-02-10T16:44:18;8.20;92.80
41168;DHT22;26906;45.658;9.272;2023-02-10T16:46:45;7.90;92.70
41168;DHT22;26906;45.658;9.272;2023-02-10T16:49:16;7.80;92.80
41168;DHT22;26906;45.658;9.272;2023-02-10T16:51:42;7.60;93.00
41168;DHT22;26906;45.658;9.272;2023-02-10T16:54:09;7.50;93.10
41168;DHT22;26906;45.658;9.272;2023-02-10T16:56:42;7.50;93.20
41168;DHT22;26906;45.658;9.272;2023-02-10T16:59:14;7.80;93.10
41168;DHT22;26906;45.658;9.272;2023-02-10T17:01:42;7.40;93.50
41168;DHT22;26906;45.658;9.272;2023-02-10T17:04:08;7.40;93.60
41168;DHT22;26906;45.658;9.272;2023-02-10T17:06:45;7.50;93.80
41168;DHT22;26906;45.658;9.272;2023-02-10T17:09:17;7.20;93.80
41168;DHT22;26906;45.658;9.272;2023-02-10T17:11:46;7.00;94.10
41168;DHT22;26906;45.658;9.272;2023-02-10T17:14:13;7.00;94.50
41168;DHT22;26906;45.658;9.272;2023-02-10T17:16:45;7.00;94.80
41168;DHT22;26906;45.658;9.272;2023-02-10T17:19:14;7.00;94.70
41168;DHT22;26906;45.658;9.272;2023-02-10T17:21:41;7.00;95.10
41168;DHT22;26906;45.658;9.272;2023-02-10T17:24:07;6.70;95.20
41168;DHT22;26906;45.658;9.272;2023-02-10T17:26:33;6.60;95.50
41168;DHT22;26906;45.658;9.272;2023-02-10T17:28:59;6.60;95.70
41168;DHT22;26906;45.658;9.272;2023-02-10T17:31:26;6.50;95.90
41168;DHT22;26906;45.658;9.272;2023-02-10T17:33:52;6.40;96.30
41168;DHT22;26906;45.658;9.272;2023-02-10T17:36:21;6.30;96.70
41168;DHT22;26906;45.658;9.272;2023-02-10T17:38:49;6.20;96.90
41168;DHT22;26906;45.658;9.272;2023-02-10T17:41:24;6.20;96.90
41168;DHT22;26906;45.658;9.272;2023-02-10T17:43:56;6.00;97.40
41168;DHT22;26906;45.658;9.272;2023-02-10T17:46:22;6.30;97.60
41168;DHT22;26906;45.658;9.272;2023-02-10T17:48:48;6.00;97.80
41168;DHT22;26906;45.658;9.272;2023-02-10T17:51:16;5.90;97.50
41168;DHT22;26906;45.658;9.272;2023-02-10T17:53:45;6.60;98.20
41168;DHT22;26906;45.658;9.272;2023-02-10T17:56:18;5.80;97.80
41168;DHT22;26906;45.658;9.272;2023-02-10T17:58:44;5.60;98.00
41168;DHT22;26906;45.658;9.272;2023-02-10T18:01:27;5.50;98.90
41168;DHT22;26906;45.658;9.272;2023-02-10T18:03:55;5.60;98.50
41168;DHT22;26906;45.658;9.272;2023-02-10T18:06:21;5.60;98.50
41168;DHT22;26906;45.658;9.272;2023-02-10T18:08:51;5.50;98.40
41168;DHT22;26906;45.658;9.272;2023-02-10T18:11:24;5.40;98.40
41168;DHT22;26906;45.658;9.272;2023-02-10T18:13:51;5.50;98.10
41168;DHT22;26906;45.658;9.272;2023-02-10T18:16:22;5.40;98.60
41168;DHT22;26906;45.658;9.272;2023-02-10T18:18:58;5.40;99.30
41168;DHT22;26906;45.658;9.272;2023-02-10T18:21:26;5.40;99.50
41168;DHT22;26906;45.658;9.272;2023-02-10T18:23:53;5.30;99.90
41168;DHT22;26906;45.658;9.272;2023-02-10T18:26:21;5.10;99.90
41168;DHT22;26906;45.658;9.272;2023-02-10T18:28:50;5.10;99.90
41168;DHT22;26906;45.658;9.272;2023-02-10T18:31:16;4.90;99.90
41168;DHT22;26906;45.658;9.272;2023-02-10T18:33:45;4.90;99.90
41168;DHT22;26906;45.658;9.272;2023-02-10T18:36:14;4.80;99.90
41168;DHT22;26906;45.658;9.272;2023-02-10T18:38:42;4.80;99.90
41168;DHT22;26906;45.658;9.272;2023-02-10T18:41:10;4.80;99.90
41168;DHT22;26906;45.658;9.272;2023-02-10T18:43:40;4.60;99.90
41168;DHT22;26906;45.658;9.272;2023-02-10T18:46:05;4.70;99.90
41168;DHT22;26906;45.658;9.272;2023-02-10T18:48:31;4.70;99.90
41168;DHT22;26906;45.658;9.272;2023-02-10T18:51:02;5.10;99.90
41168;DHT22;26906;45.658;9.272;2023-02-10T18:53:32;4.50;99.90
41168;DHT22;26906;45.658;9.272;2023-02-10T18:56:11;4.40;99.90
41168;DHT22;26906;45.658;9.272;2023-02-10T18:58:38;4.30;99.90
41168;DHT22;26906;45.658;9.272;2023-02-10T19:01:08;4.30;99.90
41168;DHT22;26906;45.658;9.272;2023-02-10T19:03:34;4.30;99.90
41168;DHT22;26906;45.658;9.272;2023-02-10T19:06:00;4.20;99.90
41168;DHT22;26906;45.658;9.272;2023-02-10T19:08:26;4.30;99.90
41168;DHT22;26906;45.658;9.272;2023-02-10T19:10:52;4.10;99.90
41168;DHT22;26906;45.658;9.272;2023-02-10T19:13:20;4.10;99.90
41168;DHT22;26906;45.658;9.272;2023-02-10T19:15:47;4.20;99.90
41168;DHT22;26906;45.658;9.272;2023-02-10T19:18:18;4.10;99.90
41168;DHT22;26906;45.658;9.272;2023-02-10T19:20:44;4.00;99.90
41168;DHT22;26906;45.658;9.272;2023-02-10T19:23:09;4.00;99.90
41168;DHT22;26906;45.658;9.272;2023-02-10T19:25:35;4.10;99.90
41168;DHT22;26906;45.658;9.272;2023-02-10T19:28:01;4.00;99.90
41168;DHT22;26906;45.658;9.272;2023-02-10T19:30:28;4.20;99.90
41168;DHT22;26906;45.658;9.272;2023-02-10T19:32:56;4.30;99.90
41168;DHT22;26906;45.658;9.272;2023-02-10T19:35:22;4.10;99.90
41168;DHT22;26906;45.658;9.272;2023-02-10T19:37:48;4.00;99.90
41168;DHT22;26906;45.658;9.272;2023-02-10T19:40:16;3.90;99.90
41168;DHT22;26906;45.658;9.272;2023-02-10T19:42:42;3.80;99.90
41168;DHT22;26906;45.658;9.272;2023-02-10T19:45:08;3.70;99.90
41168;DHT22;26906;45.658;9.272;2023-02-10T19:47:35;3.70;99.90
41168;DHT22;26906;45.658;9.272;2023-02-10T19:50:00;3.70;99.90
41168;DHT22;26906;45.658;9.272;2023-02-10T19:52:26;3.70;99.90
41168;DHT22;26906;45.658;9.272;2023-02-10T19:54:52;3.70;99.90
41168;DHT22;26906;45.658;9.272;2023-02-10T19:57:18;3.90;99.90
41168;DHT22;26906;45.658;9.272;2023-02-10T19:59:44;4.10;99.90
41168;DHT22;26906;45.658;9.272;2023-02-10T20:02:10;3.70;99.90
41168;DHT22;26906;45.658;9.272;2023-02-10T20:04:36;3.60;99.90
41168;DHT22;26906;45.658;9.272;2023-02-10T20:07:02;3.60;99.90
41168;DHT22;26906;45.658;9.272;2023-02-10T20:09:27;3.70;99.90
41168;DHT22;26906;45.658;9.272;2023-02-10T20:12:01;3.60;99.90
41168;DHT22;26906;45.658;9.272;2023-02-10T20:14:27;3.50;99.90
41168;DHT22;26906;45.658;9.272;2023-02-10T20:16:53;3.40;99.90
41168;DHT22;26906;45.658;9.272;2023-02-10T20:19:19;3.30;99.90
41168;DHT22;26906;45.658;9.272;2023-02-10T20:21:46;3.30;99.90
41168;DHT22;26906;45.658;9.272;2023-02-10T20:24:12;3.40;99.90
41168;DHT22;26906;45.658;9.272;2023-02-10T20:26:40;3.40;99.90
41168;DHT22;26906;45.658;9.272;2023-02-10T20:29:07;3.40;99.90
41168;DHT22;26906;45.658;9.272;2023-02-10T20:31:35;3.30;99.90
41168;DHT22;26906;45.658;9.272;2023-02-10T20:34:01;3.80;99.90
41168;DHT22;26906;45.658;9.272;2023-02-10T20:36:29;3.30;99.90
41168;DHT22;26906;45.658;9.272;2023-02-10T20:38:55;3.30;99.90
41168;DHT22;26906;45.658;9.272;2023-02-10T20:41:25;3.20;99.90
41168;DHT22;26906;45.658;9.272;2023-02-10T20:43:51;3.20;99.90
41168;DHT22;26906;45.658;9.272;2023-02-10T20:46:18;3.10;99.90
41168;DHT22;26906;45.658;9.272;2023-02-10T20:48:45;3.10;99.90
41168;DHT22;26906;45.658;9.272;2023-02-10T20:51:11;3.20;99.90
41168;DHT22;26906;45.658;9.272;2023-02-10T20:53:38;3.20;99.90
41168;DHT22;26906;45.658;9.272;2023-02-10T20:56:07;3.30;99.90
41168;DHT22;26906;45.658;9.272;2023-02-10T20:58:33;3.30;99.90
41168;DHT22;26906;45.658;9.272;2023-02-10T21:01:00;3.20;99.90
41168;DHT22;26906;45.658;9.272;2023-02-10T21:03:28;3.20;99.90
41168;DHT22;26906;45.658;9.272;2023-02-10T21:06:06;3.20;99.90
41168;DHT22;26906;45.658;9.272;2023-02-10T21:08:32;3.20;99.90
41168;DHT22;26906;45.658;9.272;2023-02-10T21:10:59;3.00;99.90
41168;DHT22;26906;45.658;9.272;2023-02-10T21:13:24;3.00;99.90
41168;DHT22;26906;45.658;9.272;2023-02-10T21:15:51;2.90;99.90
41168;DHT22;26906;45.658;9.272;2023-02-10T21:18:17;2.80;99.90
41168;DHT22;26906;45.658;9.272;2023-02-10T21:20:43;3.40;99.90
41168;DHT22;26906;45.658;9.272;2023-02-10T21:23:09;2.90;99.90
41168;DHT22;26906;45.658;9.272;2023-02-10T21:25:36;2.80;99.90
41168;DHT22;26906;45.658;9.272;2023-02-10T21:28:03;2.80;99.90
41168;DHT22;26906;45.658;9.272;2023-02-10T21:30:30;2.70;99.90
